Time;durP1;ratioP1;P1;durP2;ratioP2;P2;SDS_P1;SDS_P2;PMS_P1;PMS_P2;Temp;Humidity;BMP_temperature;BMP_pressure;BME280_temperature;BME280_humidity;BME280_pressure;Samples;Min_cycle;Max_cycle;Signal;HPM_P1;HPM_P2
2023/10/06 00:02:28;;;;;;;1.30;1.13;;;;;;;10.67;77.17;100485.59;5115260;28;20048;-64
2023/10/06 00:05:00;;;;;;;1.48;1.02;;;;;;;10.60;76.72;100488.94;5115216;28;20039;-65
2023/10/06 00:07:30;;;;;;;1.50;1.40;;;;;;;10.62;77.10;100484.69;5114730;28;20051;-65
2023/10/06 00:09:59;;;;;;;0.57;0.57;;;;;;;10.59;77.69;100487.22;5114790;28;20084;-64
2023/10/06 00:12:31;;;;;;;0.75;0.75;;;;;;;10.51;77.85;100483.69;5115133;28;20456;-64
2023/10/06 00:15:07;;;;;;;0.52;0.52;;;;;;;10.47;78.33;100481.09;5114720;28;20490;-64
2023/10/06 00:17:37;;;;;;;1.65;1.55;;;;;;;10.53;78.07;100482.00;5114580;28;20047;-64
2023/10/06 00:20:21;;;;;;;4.05;1.17;;;;;;;10.64;78.11;100483.00;5114854;28;20398;-64
2023/10/06 00:22:54;;;;;;;0.90;0.73;;;;;;;10.63;78.51;100476.19;5114653;28;20047;-65
2023/10/06 00:25:24;;;;;;;0.45;0.45;;;;;;;10.65;78.38;100486.44;5113583;28;20454;-67
2023/10/06 00:27:54;;;;;;;1.10;1.02;;;;;;;10.69;78.37;100473.72;5114463;28;20093;-66
2023/10/06 00:30:25;;;;;;;0.90;0.73;;;;;;;10.61;78.43;100485.53;5114769;28;20044;-67
2023/10/06 00:32:56;;;;;;;0.63;0.63;;;;;;;10.44;78.35;100476.78;5114757;28;20056;-67
2023/10/06 00:35:30;;;;;;;1.23;1.17;;;;;;;10.43;78.66;100480.22;5114426;28;20055;-66
2023/10/06 00:38:13;;;;;;;1.52;1.42;;;;;;;10.48;78.96;100483.69;5114654;28;20403;-65
2023/10/06 00:40:50;;;;;;;2.58;1.48;;;;;;;10.40;79.06;100475.06;5114375;28;20047;-65
2023/10/06 00:43:35;;;;;;;0.70;0.70;;;;;;;10.38;79.01;100470.78;5113127;28;20503;-65
2023/10/06 00:46:06;;;;;;;2.17;1.75;;;;;;;10.44;79.65;100471.69;5114564;28;20445;-66
2023/10/06 00:48:38;;;;;;;1.50;1.40;;;;;;;10.55;79.19;100480.34;5113431;28;20058;-65
2023/10/06 00:51:12;;;;;;;1.45;1.25;;;;;;;10.48;79.44;100478.56;5112974;28;20056;-66
2023/10/06 00:53:41;;;;;;;0.77;0.77;;;;;;;10.49;79.65;100482.81;5114153;28;20060;-67
2023/10/06 00:56:15;;;;;;;0.77;0.75;;;;;;;10.44;79.60;100484.44;5113107;28;20044;-66
2023/10/06 00:58:46;;;;;;;1.02;0.95;;;;;;;10.41;79.47;100484.44;5113960;28;20049;-65
2023/10/06 01:01:17;;;;;;;0.63;0.63;;;;;;;10.35;80.06;100492.00;5114002;28;20048;-65
2023/10/06 01:03:49;;;;;;;3.33;1.48;;;;;;;10.26;79.85;100496.13;5112797;28;20039;-65
2023/10/06 01:06:23;;;;;;;1.35;1.25;;;;;;;10.27;80.24;100491.03;5113165;28;20047;-65
2023/10/06 01:09:05;;;;;;;0.75;0.75;;;;;;;10.24;79.70;100493.56;5114399;28;20130;-65
2023/10/06 01:11:41;;;;;;;0.85;0.82;;;;;;;10.38;80.10;100492.03;5112799;28;20093;-66
2023/10/06 01:14:14;;;;;;;1.17;1.13;;;;;;;10.41;79.92;100506.53;5114250;28;20461;-65
2023/10/06 01:16:44;;;;;;;1.10;1.00;;;;;;;10.46;79.38;100502.34;5113983;28;20051;-64
2023/10/06 01:19:17;;;;;;;0.70;0.70;;;;;;;10.41;79.28;100507.41;5112556;28;20097;-65
2023/10/06 01:21:47;;;;;;;1.23;1.13;;;;;;;10.40;79.53;100510.78;5112697;28;20050;-66
2023/10/06 01:24:23;;;;;;;0.95;0.95;;;;;;;10.40;79.62;100504.81;5112683;28;20564;-65
2023/10/06 01:26:54;;;;;;;0.95;0.95;;;;;;;10.37;79.16;100500.53;5113358;28;20373;-66
2023/10/06 01:29:28;;;;;;;0.95;0.80;;;;;;;10.47;79.39;100504.91;5113705;28;20051;-65
2023/10/06 01:31:58;;;;;;;0.70;0.70;;;;;;;10.40;79.30;100508.22;5113837;28;20052;-66
2023/10/06 01:34:27;;;;;;;0.80;0.80;;;;;;;10.48;79.44;100519.41;5118188;28;20040;-65
2023/10/06 01:36:56;;;;;;;0.93;0.90;;;;;;;10.41;79.03;100520.16;5116617;28;20092;-66
2023/10/06 01:39:31;;;;;;;2.83;1.37;;;;;;;10.38;78.81;100516.69;5116467;28;20040;-65
2023/10/06 01:42:06;;;;;;;1.48;1.38;;;;;;;10.27;79.31;100521.63;5117750;28;20036;-66
2023/10/06 01:44:35;;;;;;;0.82;0.82;;;;;;;10.24;78.89;100519.06;5116647;28;20517;-65
2023/10/06 01:47:06;;;;;;;5.78;0.82;;;;;;;10.25;78.92;100523.31;5117516;27;20101;-65
2023/10/06 01:49:35;;;;;;;0.90;0.90;;;;;;;10.24;79.00;100519.06;5117594;28;20047;-66
2023/10/06 01:52:07;;;;;;;1.52;0.88;;;;;;;10.29;79.63;100521.69;5116291;28;20043;-66
2023/10/06 01:54:39;;;;;;;2.17;1.48;;;;;;;10.31;78.59;100525.97;5116347;28;20043;-64
2023/10/06 01:57:10;;;;;;;1.27;1.17;;;;;;;10.20;78.76;100516.47;5116517;28;20056;-65
2023/10/06 01:59:39;;;;;;;2.17;1.48;;;;;;;10.18;79.26;100528.31;5116165;28;20043;-65
2023/10/06 02:02:12;;;;;;;0.60;0.60;;;;;;;10.20;79.10;100522.41;5117288;28;20044;-66
2023/10/06 02:04:45;;;;;;;0.40;0.40;;;;;;;10.19;78.67;100530.91;5117551;28;20040;-66
2023/10/06 02:07:14;;;;;;;0.63;0.60;;;;;;;10.12;78.97;100525.69;5116293;28;20044;-66
2023/10/06 02:09:45;;;;;;;1.65;1.17;;;;;;;10.04;78.81;100535.72;5116040;28;20119;-65
2023/10/06 02:12:15;;;;;;;0.85;0.47;;;;;;;10.10;79.40;100531.56;5115706;28;20414;-65
2023/10/06 02:14:47;;;;;;;5.25;1.40;;;;;;;9.98;79.02;100530.56;5117136;28;20039;-65
2023/10/06 02:17:16;;;;;;;8.88;0.90;;;;;;;9.91;79.20;100533.84;5117372;28;20471;-66
2023/10/06 02:19:45;;;;;;;1.05;0.95;;;;;;;10.05;78.80;100540.00;5115916;28;20123;-65
2023/10/06 02:22:14;;;;;;;2.08;0.90;;;;;;;10.01;78.90;100539.09;5116960;28;20043;-66
2023/10/06 02:24:45;;;;;;;0.65;0.65;;;;;;;10.09;78.76;100539.22;5116880;28;20039;-66
2023/10/06 02:27:15;;;;;;;11.75;2.05;;;;;;;10.13;79.31;100541.00;5115675;28;20097;-64
2023/10/06 02:29:44;;;;;;;1.25;1.15;;;;;;;10.07;79.07;100536.66;5117021;28;20121;-64
2023/10/06 02:32:13;;;;;;;1.53;1.20;;;;;;;10.05;79.28;100538.28;5117550;28;20118;-65
2023/10/06 02:34:45;;;;;;;1.20;1.10;;;;;;;9.97;78.92;100533.94;5116599;28;20070;-65
2023/10/06 02:37:18;;;;;;;2.03;1.02;;;;;;;10.01;79.28;100535.69;5115667;28;20048;-65
2023/10/06 02:39:50;;;;;;;0.70;0.70;;;;;;;9.95;79.23;100538.16;5116405;28;20097;-65
2023/10/06 02:42:20;;;;;;;0.50;0.50;;;;;;;9.89;79.00;100535.50;5115468;28;20124;-65
2023/10/06 02:44:51;;;;;;;8.60;3.00;;;;;;;9.89;79.21;100536.34;5115032;28;20049;-66
2023/10/06 02:47:21;;;;;;;0.98;0.95;;;;;;;9.96;79.42;100548.38;5115339;28;20054;-65
2023/10/06 02:49:59;;;;;;;0.45;0.45;;;;;;;9.94;79.19;100544.94;5116393;28;20039;-65
2023/10/06 02:52:37;;;;;;;1.70;1.60;;;;;;;10.04;78.90;100536.59;5116453;28;20039;-65
2023/10/06 02:55:10;;;;;;;2.30;1.02;;;;;;;10.09;79.21;100544.31;5116261;28;20123;-65
2023/10/06 02:57:50;;;;;;;4.95;2.00;;;;;;;10.16;78.60;100546.16;5116336;28;20077;-64
2023/10/06 03:03:11;;;;;;;1.98;1.10;;;;;;;10.04;78.53;100546.81;5116527;28;20123;-66
2023/10/06 03:05:49;;;;;;;1.05;0.95;;;;;;;10.11;78.07;100542.63;5114923;28;20535;-64
2023/10/06 03:08:23;;;;;;;4.00;1.13;;;;;;;10.12;78.64;100553.75;5115155;28;20047;-65
2023/10/06 03:10:54;;;;;;;0.88;0.88;;;;;;;10.09;78.32;100542.63;5116048;28;20514;-65
2023/10/06 03:13:32;;;;;;;0.70;0.70;;;;;;;10.15;78.08;100559.72;5114722;28;20058;-66
2023/10/06 03:16:10;;;;;;;1.33;1.25;;;;;;;10.14;78.14;100555.47;5115808;28;20043;-65
2023/10/06 03:18:40;;;;;;;0.55;0.55;;;;;;;9.97;78.10;100560.28;5114568;28;20044;-65
2023/10/06 03:21:14;;;;;;;1.20;1.10;;;;;;;9.77;78.04;100560.78;5114848;28;20040;-65
2023/10/06 03:23:44;;;;;;;1.05;0.90;;;;;;;9.71;78.25;100570.91;5114877;28;20146;-65
2023/10/06 03:26:25;;;;;;;1.23;1.13;;;;;;;9.66;78.82;100567.41;5115653;28;20054;-64
2023/10/06 03:29:01;;;;;;;1.30;1.20;;;;;;;9.68;78.35;100563.19;5115619;28;20066;-65
2023/10/06 03:31:44;;;;;;;0.47;0.47;;;;;;;9.60;78.89;100565.59;5115856;28;20051;-65
2023/10/06 03:34:22;;;;;;;0.60;0.60;;;;;;;9.48;79.15;100567.09;5116086;28;20071;-64
2023/10/06 03:36:52;;;;;;;0.85;0.68;;;;;;;9.36;78.72;100571.13;5115445;28;20100;-65
2023/10/06 03:39:27;;;;;;;0.98;0.60;;;;;;;9.34;79.29;100572.78;5115414;28;20047;-65
2023/10/06 03:42:02;;;;;;;1.08;0.98;;;;;;;9.47;79.43;100578.13;5114202;28;20047;-64
2023/10/06 03:44:32;;;;;;;0.85;0.85;;;;;;;9.44;79.80;100584.88;5115282;28;20070;-64
2023/10/06 03:47:07;;;;;;;1.25;0.95;;;;;;;9.57;79.77;100587.66;5115262;28;20134;-65
2023/10/06 03:49:37;;;;;;;0.85;0.80;;;;;;;9.78;79.60;100585.47;5097359;28;20562;-66
2023/10/06 03:52:09;;;;;;;;;;;;;;;9.86;79.47;100581.34;5115828;28;20038;-66
2023/10/06 03:54:39;;;;;;;1.65;1.50;;;;;;;9.82;79.53;100587.22;5114122;28;20014;-66
2023/10/06 03:57:11;;;;;;;0.50;0.50;;;;;;;9.80;78.43;100587.22;5114792;28;20046;-65
2023/10/06 03:59:40;;;;;;;0.90;0.90;;;;;;;9.82;78.61;100589.78;5115505;28;20067;-66
2023/10/06 04:02:09;;;;;;;1.30;1.20;;;;;;;9.78;79.05;100593.13;5114948;28;20048;-66
2023/10/06 04:04:39;;;;;;;1.65;1.38;;;;;;;9.66;78.72;100603.09;5114847;28;20272;-65
2023/10/06 04:07:08;;;;;;;1.75;1.30;;;;;;;9.61;79.15;100605.56;5115453;28;20122;-67
2023/10/06 04:09:38;;;;;;;0.57;0.57;;;;;;;9.64;78.77;100607.31;5114837;28;20051;-66
2023/10/06 04:12:07;;;;;;;1.40;1.30;;;;;;;9.54;79.30;100607.97;5115083;28;20057;-66
2023/10/06 04:14:38;;;;;;;1.15;1.05;;;;;;;9.41;79.02;100607.75;5114730;28;20126;-66
2023/10/06 04:17:09;;;;;;;1.73;1.23;;;;;;;9.50;79.30;100611.31;5115546;28;20048;-65
2023/10/06 04:19:38;;;;;;;2.15;1.58;;;;;;;9.63;79.30;100611.53;5115070;28;20036;-66
2023/10/06 04:22:08;;;;;;;1.33;1.23;;;;;;;9.73;79.57;100615.09;5114907;28;20063;-67
2023/10/06 04:24:37;;;;;;;1.33;1.23;;;;;;;9.73;79.37;100615.97;5115060;28;20487;-65
2023/10/06 04:27:07;;;;;;;0.45;0.45;;;;;;;9.75;78.90;100621.09;5114812;28;20399;-66
2023/10/06 04:29:40;;;;;;;0.57;0.57;;;;;;;9.70;78.47;100625.25;5114752;28;20136;-66
2023/10/06 04:32:13;;;;;;;0.90;0.90;;;;;;;9.48;78.94;100623.16;5115035;28;20388;-66
2023/10/06 04:34:42;;;;;;;2.15;1.83;;;;;;;9.39;78.44;100629.78;5114704;28;20058;-65
2023/10/06 04:37:13;;;;;;;1.90;1.70;;;;;;;9.32;78.52;100633.06;5114836;28;20411;-66
2023/10/06 04:39:42;;;;;;;0.75;0.73;;;;;;;9.20;78.79;100625.16;5114484;28;20499;-65
2023/10/06 04:42:11;;;;;;;2.92;2.20;;;;;;;9.08;79.42;100629.16;5114509;28;20047;-64
2023/10/06 04:44:41;;;;;;;2.35;1.85;;;;;;;9.05;79.87;100627.41;5114438;28;20373;-65
2023/10/06 04:47:11;;;;;;;0.50;0.50;;;;;;;9.05;79.71;100632.50;5114218;28;20069;-66
2023/10/06 04:49:41;;;;;;;0.73;0.73;;;;;;;8.94;79.22;100631.41;5114171;28;20082;-65
2023/10/06 04:52:10;;;;;;;0.63;0.63;;;;;;;8.98;79.62;100635.72;5114126;28;20040;-66
2023/10/06 04:54:39;;;;;;;0.57;0.52;;;;;;;8.94;79.87;100628.88;5114072;28;20096;-66
2023/10/06 04:57:08;;;;;;;7.50;1.92;;;;;;;8.96;79.77;100633.97;5114000;28;20051;-65
2023/10/06 04:59:37;;;;;;;1.13;1.05;;;;;;;8.99;80.46;100627.28;5114135;28;20518;-65
2023/10/06 05:02:08;;;;;;;0.40;0.40;;;;;;;8.99;80.61;100622.19;5114254;28;20074;-66
2023/10/06 05:04:37;;;;;;;2.00;1.35;;;;;;;8.99;80.57;100622.19;5113959;28;20051;-66
2023/10/06 05:07:06;;;;;;;0.57;0.57;;;;;;;9.03;80.07;100618.88;5113402;28;20040;-65
2023/10/06 05:09:39;;;;;;;0.67;0.67;;;;;;;9.03;81.08;100633.28;5113740;28;20032;-65
2023/10/06 05:12:09;;;;;;;0.65;0.63;;;;;;;8.96;80.82;100637.41;5113895;28;20039;-65
2023/10/06 05:14:39;;;;;;;1.75;1.23;;;;;;;9.05;80.78;100636.72;5113865;28;20050;-65
2023/10/06 05:17:10;;;;;;;1.00;0.85;;;;;;;9.21;80.33;100639.59;5114045;28;20047;-66
2023/10/06 05:19:39;;;;;;;1.50;1.40;;;;;;;9.37;80.56;100643.31;5113986;28;20048;-65
2023/10/06 05:22:08;;;;;;;2.47;1.27;;;;;;;9.45;80.86;100640.09;5113684;28;20085;-65
2023/10/06 05:24:37;;;;;;;2.60;1.73;;;;;;;9.54;80.38;100634.31;5113761;28;20059;-65
2023/10/06 05:27:06;;;;;;;0.67;0.63;;;;;;;9.53;80.07;100629.16;5114074;28;20130;-65
2023/10/06 05:29:36;;;;;;;0.70;0.70;;;;;;;9.45;79.86;100634.97;5113656;28;20329;-64
2023/10/06 05:32:06;;;;;;;0.95;0.73;;;;;;;9.37;80.01;100636.56;5113756;28;20461;-65
2023/10/06 05:34:40;;;;;;;1.10;0.88;;;;;;;9.32;80.63;100638.16;5113714;28;20376;-65
2023/10/06 05:37:09;;;;;;;2.30;1.67;;;;;;;9.42;80.80;100650.25;5113921;28;20394;-64
2023/10/06 05:39:40;;;;;;;0.85;0.82;;;;;;;9.55;80.99;100650.47;5113558;28;20051;-66
2023/10/06 05:42:10;;;;;;;0.80;0.80;;;;;;;9.68;80.33;100653.28;5112639;28;20398;-65
2023/10/06 05:44:41;;;;;;;1.30;1.20;;;;;;;9.75;80.56;100659.31;5113584;28;20085;-64
2023/10/06 05:47:10;;;;;;;2.58;1.73;;;;;;;9.78;80.88;100659.38;5097038;28;20067;-64
2023/10/06 05:49:47;;;;;;;0.57;0.57;;;;;;;9.90;80.15;100654.50;5094071;28;20051;-63
2023/10/06 05:52:17;;;;;;;0.77;0.77;;;;;;;10.10;80.34;100648.06;5093430;28;20101;-65
2023/10/06 05:54:45;;;;;;;1.20;0.90;;;;;;;10.32;79.93;100652.69;5093419;28;20036;-66
2023/10/06 05:57:16;;;;;;;0.80;0.80;;;;;;;10.42;79.49;100680.09;5093332;28;20045;-66
2023/10/06 05:59:48;;;;;;;1.23;1.13;;;;;;;10.44;79.50;100686.06;5093378;28;20048;-64
2023/10/06 06:02:18;;;;;;;1.10;1.00;;;;;;;10.63;79.39;100693.19;5093021;28;20048;-65
2023/10/06 06:04:51;;;;;;;2.15;1.40;;;;;;;10.84;78.90;100689.22;5093644;28;20061;-66
2023/10/06 06:07:19;;;;;;;3.35;1.08;;;;;;;11.01;78.88;100696.31;5091881;28;20065;-65
2023/10/06 06:09:48;;;;;;;2.20;1.50;;;;;;;11.19;78.64;100695.69;5092966;28;20040;-65
2023/10/06 06:12:21;;;;;;;4.20;2.30;;;;;;;11.39;78.24;100694.25;5093494;28;20109;-64
2023/10/06 06:14:50;;;;;;;1.23;1.13;;;;;;;11.48;77.45;100693.47;5093576;28;20068;-65
2023/10/06 06:17:20;;;;;;;2.08;1.60;;;;;;;11.64;77.52;100691.13;5092067;28;20131;-66
2023/10/06 06:19:51;;;;;;;0.65;0.65;;;;;;;11.75;77.26;100693.84;5095869;28;20127;-65
2023/10/06 06:22:29;;;;;;;0.88;0.85;;;;;;;11.72;76.79;100702.34;5096842;28;20043;-64
2023/10/06 06:24:58;;;;;;;2.38;2.17;;;;;;;11.75;76.69;100699.81;5096481;28;20040;-66
2023/10/06 06:27:27;;;;;;;1.92;1.45;;;;;;;11.77;76.58;100693.00;5096039;28;20036;-67
2023/10/06 06:29:56;;;;;;;2.33;1.83;;;;;;;11.76;76.28;100693.84;5096168;28;20048;-64
2023/10/06 06:32:25;;;;;;;1.47;1.17;;;;;;;11.88;75.80;100708.44;5096126;28;20139;-64
2023/10/06 06:34:56;;;;;;;1.20;1.10;;;;;;;11.96;75.92;100715.38;5096219;28;20280;-64
2023/10/06 06:37:24;;;;;;;0.90;0.88;;;;;;;12.03;75.39;100722.28;5096446;28;20147;-65
2023/10/06 06:39:53;;;;;;;0.93;0.93;;;;;;;12.22;75.53;100722.44;5095838;28;20123;-65
2023/10/06 06:42:23;;;;;;;1.40;1.05;;;;;;;12.31;74.89;100732.78;5096021;28;20040;-66
2023/10/06 06:44:53;;;;;;;1.23;0.50;;;;;;;12.35;74.67;100734.53;5096312;28;20059;-65
2023/10/06 06:47:25;;;;;;;0.60;0.60;;;;;;;12.34;74.80;100730.22;5096532;28;20119;-65
2023/10/06 06:49:58;;;;;;;20.20;1.25;;;;;;;12.33;74.56;100723.41;5095980;28;20122;-64
2023/10/06 06:52:28;;;;;;;0.65;0.65;;;;;;;12.38;74.40;100730.28;5096226;28;20074;-64
2023/10/06 06:54:57;;;;;;;;;;;;;;;12.47;74.39;100734.63;5096224;28;20514;-65
2023/10/06 06:57:26;;;;;;;3.20;1.33;;;;;;;12.58;74.26;100735.56;5096674;28;19924;-65
2023/10/06 06:59:56;;;;;;;0.82;0.82;;;;;;;12.79;73.91;100738.28;5095354;28;20581;-65
2023/10/06 07:02:25;;;;;;;5.00;1.13;;;;;;;12.86;73.42;100734.91;5095636;28;20086;-65
2023/10/06 07:04:55;;;;;;;1.43;1.33;;;;;;;12.84;73.54;100741.75;5095890;28;20309;-66
2023/10/06 07:07:24;;;;;;;1.08;0.90;;;;;;;12.93;73.24;100735.84;5094793;28;20492;-65
2023/10/06 07:09:53;;;;;;;1.40;0.98;;;;;;;12.93;73.11;100736.69;5095537;28;20073;-65
2023/10/06 07:12:23;;;;;;;0.70;0.70;;;;;;;13.01;73.13;100740.16;5095905;28;20135;-65
2023/10/06 07:14:52;;;;;;;3.63;1.15;;;;;;;12.90;73.16;100736.69;5095867;28;20075;-65
2023/10/06 07:17:22;;;;;;;1.10;1.10;;;;;;;13.02;73.01;100734.19;5094488;28;20040;-65
2023/10/06 07:19:52;;;;;;;0.73;0.73;;;;;;;13.20;72.84;100742.00;5095385;28;20578;-66
2023/10/06 07:22:26;;;;;;;2.10;1.17;;;;;;;13.34;72.81;100735.25;5095199;28;20492;-65
2023/10/06 07:24:56;;;;;;;1.30;1.20;;;;;;;13.47;72.04;100735.31;5095617;28;20119;-64
2023/10/06 07:27:25;;;;;;;2.30;0.82;;;;;;;13.59;72.28;100740.47;5095211;28;20502;-66
2023/10/06 07:29:54;;;;;;;2.20;1.65;;;;;;;13.64;72.04;100741.38;5094810;28;20037;-66
2023/10/06 07:32:23;;;;;;;1.15;1.05;;;;;;;13.71;71.65;100740.53;5095418;28;20067;-64
2023/10/06 07:34:53;;;;;;;1.83;1.35;;;;;;;13.78;71.47;100742.25;5095734;28;20507;-65
2023/10/06 07:37:23;;;;;;;0.90;0.90;;;;;;;14.00;70.81;100744.06;5095283;28;20118;-66
2023/10/06 07:39:52;;;;;;;2.55;1.15;;;;;;;14.15;70.78;100744.09;5094671;28;20094;-65
2023/10/06 07:42:20;;;;;;;0.70;0.70;;;;;;;14.20;70.08;100746.66;5093835;28;20533;-66
2023/10/06 07:44:49;;;;;;;0.90;0.90;;;;;;;14.26;69.93;100741.53;5102523;28;20059;-65
2023/10/06 07:47:24;;;;;;;0.68;0.68;;;;;;;14.39;68.89;100741.59;5109402;28;20028;-66
2023/10/06 07:49:54;;;;;;;1.15;1.05;;;;;;;14.47;68.90;100742.44;5115444;28;20054;-65
2023/10/06 07:52:24;;;;;;;;;;;;;;;14.53;68.47;100747.59;5115507;28;20087;-66
2023/10/06 07:54:53;;;;;;;1.70;1.27;;;;;;;14.65;68.38;100750.16;5115004;28;19919;-66
2023/10/06 07:57:22;;;;;;;2.42;1.70;;;;;;;14.84;68.10;100752.72;5115276;28;20554;-66
2023/10/06 07:59:51;;;;;;;0.75;0.73;;;;;;;15.01;68.11;100748.41;5113787;28;20084;-66
2023/10/06 08:02:20;;;;;;;0.73;0.73;;;;;;;15.14;67.87;100755.25;5114978;28;20036;-66
2023/10/06 08:04:51;;;;;;;1.73;1.50;;;;;;;15.29;67.52;100765.50;5114891;28;20047;-67
2023/10/06 08:07:20;;;;;;;0.60;0.60;;;;;;;15.41;66.86;100757.75;5114796;28;20043;-66
2023/10/06 08:09:51;;;;;;;;;;;;;;;15.54;66.50;100756.88;5115186;28;20056;-66
2023/10/06 08:12:20;;;;;;;0.73;0.73;;;;;;;15.72;66.27;100764.53;5114777;28;20371;-66
2023/10/06 08:14:50;;;;;;;0.60;0.60;;;;;;;15.80;65.48;100761.91;5114739;28;20472;-65
2023/10/06 08:17:20;;;;;;;5.20;1.70;;;;;;;15.84;65.07;100754.16;5114701;28;20059;-65
2023/10/06 08:19:49;;;;;;;1.75;1.08;;;;;;;15.87;64.61;100756.72;5115068;28;20116;-66
2023/10/06 08:22:18;;;;;;;0.77;0.77;;;;;;;15.95;64.37;100751.56;5114553;28;20039;-66
2023/10/06 08:24:47;;;;;;;1.03;0.90;;;;;;;16.02;64.53;100754.09;5114932;28;20391;-68
2023/10/06 08:27:21;;;;;;;0.77;0.77;;;;;;;16.15;64.03;100756.59;5114495;28;20036;-66
2023/10/06 08:29:51;;;;;;;0.60;0.60;;;;;;;16.31;64.01;100755.63;5114489;28;20499;-66
2023/10/06 08:32:21;;;;;;;0.75;0.73;;;;;;;16.41;63.69;100747.78;5114334;28;20044;-67
2023/10/06 08:34:50;;;;;;;1.80;1.58;;;;;;;16.56;63.44;100746.88;5114342;28;20044;-67
2023/10/06 08:37:20;;;;;;;1.25;1.10;;;;;;;16.73;63.02;100750.16;5114601;28;20478;-65
2023/10/06 08:39:49;;;;;;;0.97;0.97;;;;;;;16.82;62.16;100749.25;5114231;28;20132;-66
2023/10/06 08:42:21;;;;;;;0.73;0.73;;;;;;;16.85;61.32;100739.75;5114270;28;20063;-66
2023/10/06 08:44:50;;;;;;;1.85;1.52;;;;;;;17.08;61.73;100742.97;5114246;28;20051;-66
2023/10/06 08:47:20;;;;;;;0.75;0.75;;;;;;;17.14;61.26;100742.88;5114156;28;20122;-67
2023/10/06 08:50:00;;;;;;;2.92;0.88;;;;;;;17.15;60.64;100752.34;5113991;28;20092;-67
2023/10/06 08:52:32;;;;;;;1.75;1.15;;;;;;;17.14;60.17;100752.34;5114007;28;20504;-66
2023/10/06 08:55:02;;;;;;;3.05;2.75;;;;;;;17.28;60.48;100735.84;5112912;28;20043;-66
2023/10/06 08:57:33;;;;;;;2.15;1.80;;;;;;;17.40;60.20;100740.88;5114185;28;20119;-66
2023/10/06 09:00:06;;;;;;;0.60;0.60;;;;;;;17.58;59.91;100734.69;5114088;28;20048;-66
2023/10/06 09:02:35;;;;;;;1.50;1.25;;;;;;;17.70;59.53;100733.69;5114405;28;20040;-66
2023/10/06 09:05:09;;;;;;;3.90;2.10;;;;;;;17.80;59.26;100728.34;5114494;28;20035;-66
2023/10/06 09:07:38;;;;;;;0.70;0.70;;;;;;;17.95;59.04;100735.03;5113985;28;20285;-67
2023/10/06 09:10:18;;;;;;;1.00;0.77;;;;;;;17.92;58.54;100727.34;5113952;28;20116;-66
2023/10/06 09:13:00;;;;;;;1.75;1.60;;;;;;;17.97;58.96;100717.81;5113918;28;20044;-66
2023/10/06 09:15:30;;;;;;;1.60;1.25;;;;;;;18.08;58.31;100721.09;5113807;28;20131;-67
2023/10/06 09:17:59;;;;;;;;;;;;;;;18.19;58.04;100713.19;5114464;28;20032;-68
2023/10/06 09:20:32;;;;;;;0.65;0.65;;;;;;;18.20;57.35;100702.81;5114025;28;19923;-66
2023/10/06 09:23:01;;;;;;;2.47;1.10;;;;;;;18.38;57.53;100710.28;5113930;28;20436;-65
2023/10/06 09:25:45;;;;;;;1.47;1.13;;;;;;;18.57;57.04;100706.53;5113496;28;20089;-66
2023/10/06 09:28:17;;;;;;;0.68;0.68;;;;;;;18.68;56.47;100699.47;5114026;28;20048;-66
2023/10/06 09:30:51;;;;;;;0.43;0.43;;;;;;;18.76;56.38;100701.91;5113783;28;20055;-65
2023/10/06 09:33:24;;;;;;;0.60;0.60;;;;;;;18.90;56.47;100699.06;5112466;28;20040;-66
2023/10/06 09:36:02;;;;;;;0.60;0.60;;;;;;;18.98;56.75;100697.22;5113915;28;20051;-67
2023/10/06 09:38:32;;;;;;;6.75;1.25;;;;;;;19.09;56.35;100700.44;5113914;28;20077;-65
2023/10/06 09:41:01;;;;;;;1.30;1.13;;;;;;;19.13;55.67;100689.13;5113413;28;20429;-66
2023/10/06 09:43:34;;;;;;;0.88;0.70;;;;;;;19.17;55.27;100693.41;5113769;28;20071;-67
2023/10/06 09:46:08;;;;;;;0.95;0.90;;;;;;;19.20;54.74;100690.72;5113564;28;20046;-65
2023/10/06 09:48:38;;;;;;;0.63;0.63;;;;;;;19.23;54.48;100688.06;5114123;28;20128;-68
2023/10/06 09:51:10;;;;;;;2.25;1.55;;;;;;;19.32;53.96;100687.88;5113801;28;20055;-67
2023/10/06 09:53:43;;;;;;;0.60;0.60;;;;;;;19.38;54.13;100687.81;5113584;28;20048;-66
2023/10/06 09:56:17;;;;;;;0.40;0.40;;;;;;;19.58;53.75;100688.22;5118408;28;20564;-65
2023/10/06 09:58:49;;;;;;;0.65;0.65;;;;;;;19.73;53.28;100690.50;5117668;28;20150;-65
2023/10/06 10:01:22;;;;;;;0.50;0.50;;;;;;;19.69;53.05;100695.78;5117636;28;20521;-68
2023/10/06 10:03:54;;;;;;;1.25;1.15;;;;;;;19.70;52.94;100690.56;5117493;28;20465;-68
2023/10/06 10:06:23;;;;;;;0.60;0.60;;;;;;;19.78;52.86;100675.72;5117279;28;20435;-67
2023/10/06 10:08:52;;;;;;;0.50;0.50;;;;;;;20.05;52.49;100680.28;5117494;28;20100;-66
2023/10/06 10:11:28;;;;;;;0.57;0.57;;;;;;;20.18;52.45;100672.22;5117090;28;20043;-66
2023/10/06 10:14:18;;;;;;;1.63;1.45;;;;;;;20.40;51.97;100676.00;5117135;28;20062;-68
2023/10/06 10:17:04;;;;;;;0.93;0.93;;;;;;;20.55;51.76;100673.88;5117293;28;20110;-67
2023/10/06 10:19:33;;;;;;;2.10;0.80;;;;;;;20.63;51.45;100665.91;5117222;28;20134;-71
2023/10/06 10:22:03;;;;;;;0.70;0.70;;;;;;;20.47;51.34;100660.25;5116898;28;20046;-68
2023/10/06 10:24:36;;;;;;;;;;;;;;;20.54;51.26;100661.78;5117631;28;20395;-67
2023/10/06 10:27:13;;;;;;;1.50;1.23;;;;;;;20.60;51.01;100656.47;5115905;28;19969;-65
2023/10/06 10:29:44;;;;;;;0.63;0.60;;;;;;;20.75;50.82;100664.72;5116729;28;20052;-65
2023/10/06 10:32:14;;;;;;;0.70;0.70;;;;;;;20.77;50.57;100655.16;5116679;28;20105;-67
2023/10/06 10:35:04;;;;;;;0.57;0.57;;;;;;;20.93;50.45;100653.84;5117021;28;20067;-68
2023/10/06 10:37:34;;;;;;;0.65;0.65;;;;;;;20.98;50.08;100651.97;5116596;28;20100;-68
2023/10/06 10:40:04;;;;;;;1.02;0.95;;;;;;;20.90;50.05;100646.97;5116694;28;20056;-68
2023/10/06 10:42:39;;;;;;;;;;;;;;;20.96;50.28;100639.03;5117052;28;20379;-69
2023/10/06 10:45:34;;;;;;;0.90;0.65;;;;;;;21.08;49.70;100635.28;5116388;28;19920;-67
2023/10/06 10:48:13;;;;;;;9.32;1.00;;;;;;;21.18;49.56;100631.53;5116474;28;20044;-67
2023/10/06 10:51:01;;;;;;;1.13;0.82;;;;;;;21.32;49.27;100631.97;5116455;28;20097;-67
2023/10/06 10:53:32;;;;;;;3.08;0.93;;;;;;;21.38;49.06;100615.38;5116667;28;20142;-68
2023/10/06 10:56:02;;;;;;;0.80;0.80;;;;;;;21.35;49.01;100609.34;5116271;28;20043;-66
2023/10/06 10:59:03;;;;;;;0.40;0.40;;;;;;;21.45;48.91;100606.50;5116211;28;20055;-67
2023/10/06 11:01:37;;;;;;;0.50;0.50;;;;;;;21.47;48.69;100599.50;5116195;28;20048;-69
2023/10/06 11:07:11;;;;;;;1.13;0.93;;;;;;;21.18;48.72;100572.66;5114519;28;20071;-67
2023/10/06 11:09:48;;;;;;;0.50;0.50;;;;;;;21.43;48.90;100566.72;5116360;28;20050;-67
2023/10/06 11:12:23;;;;;;;0.60;0.60;;;;;;;21.72;48.47;100558.84;5115947;28;20047;-67
2023/10/06 11:15:02;;;;;;;0.93;0.93;;;;;;;21.78;47.79;100553.47;5115967;28;20050;-68
2023/10/06 11:17:33;;;;;;;0.88;0.88;;;;;;;21.87;47.72;100550.59;5116166;28;20043;-68
2023/10/06 11:20:13;;;;;;;2.60;0.98;;;;;;;22.07;47.59;100550.78;5115798;28;20047;-67
2023/10/06 11:22:55;;;;;;;0.95;0.70;;;;;;;22.15;47.84;100553.94;5116536;28;20040;-66
2023/10/06 11:25:28;;;;;;;0.60;0.60;;;;;;;22.41;47.35;100551.31;5115524;28;20510;-65
2023/10/06 11:28:00;;;;;;;0.70;0.70;;;;;;;22.36;47.43;100547.19;5115672;28;20131;-65
2023/10/06 11:30:31;;;;;;;0.52;0.52;;;;;;;22.37;46.60;100536.72;5115570;28;20056;-69
2023/10/06 11:33:05;;;;;;;2.17;1.02;;;;;;;22.39;46.55;100547.06;5115724;28;20055;-68
2023/10/06 11:35:38;;;;;;;0.70;0.70;;;;;;;22.53;46.35;100539.63;5115449;28;20570;-68
2023/10/06 11:38:10;;;;;;;0.70;0.70;;;;;;;22.37;45.94;100534.09;5115431;28;20507;-67
2023/10/06 11:40:40;;;;;;;3.28;1.17;;;;;;;22.38;45.93;100533.22;5115221;28;20138;-69
2023/10/06 11:43:12;;;;;;;0.60;0.60;;;;;;;22.48;45.70;100533.75;5115294;28;20039;-67
2023/10/06 11:45:43;;;;;;;0.70;0.68;;;;;;;22.38;45.28;100541.03;5115234;28;20054;-68
2023/10/06 11:48:25;;;;;;;0.68;0.68;;;;;;;22.41;45.15;100535.69;5115480;28;20402;-65
2023/10/06 11:51:06;;;;;;;0.50;0.50;;;;;;;22.43;45.41;100528.72;5115983;28;20131;-65
2023/10/06 11:53:36;;;;;;;0.30;0.30;;;;;;;22.62;45.14;100528.91;5115062;28;20123;-65
2023/10/06 11:56:08;;;;;;;0.50;0.50;;;;;;;22.74;44.74;100519.81;5115432;28;20074;-67
2023/10/06 11:58:39;;;;;;;0.55;0.55;;;;;;;22.97;44.74;100522.38;5115530;28;20051;-66